Parker, WA (98939)

5:39 AM PDT on September 02, 2014 (GMT -0700)
Sunnyslope Ranch | Change Station
CLOSE
Current Station
Personal Weather Station
Location: Wapato, WA
Elevation: 1023 ft
Nearby Weather Stations

Elev 1023 ft 46.48 °N, 120.36 °W | Updated 15 seconds ago

Clear
Clear
55.8 °F
Feels Like 55.8 °F
N
0.7
Wind Variable Wind from SSW
Gusts 3.1 mph

Today
High -- | Low -- °F
--% Chance of Precip.
Yesterday
High -- | Low -- °F
Precip. -- in
6:23 AM 7:38 PM
Waxing Crescent, 51% visible
Pressure 29.88 in
Visibility 10.0 miles
Clouds Clear
Dew Point 45 °F
Humidity 67%
Rainfall 0.00 in
Snow Depth Not available.
UV 0.0 out of 12
Pollen 4.30 out of 12
Air Quality Not available.
Flu Activity Not available.
METAR KYKM 021153Z AUTO 27007KT 10SM CLR 09/07 A2989 RMK AO2 SLP117 T00890067 10183 20089 58006

More Conditions Fewer Conditions

Pressure 29.88 in
Visibility 10.0 miles
Clouds Clear
Dew Point 45 °F
Humidity 67%
Rainfall 0.00 in
Snow Depth Not available.
UV 0.0 out of 12
Pollen 4.30 out of 12
Air Quality Not available.
Flu Activity Not available.
METAR KYKM 021153Z AUTO 27007KT 10SM CLR 09/07 A2989 RMK AO2 SLP117 T00890067 10183 20089 58006

More Conditions Fewer Conditions

10-Day Weather Forecast

Almanac

Astronomy

Sep. 02, 2014 Rise Set
Actual Time 6:23 AM PDT 7:38 PM PDT
Civil Twilight 5:52 AM PDT 8:09 PM PDT
Nautical Twilight 5:14 AM PDT 8:47 PM PDT
Astronomical Twilight 4:34 AM PDT 9:26 PM PDT
Moon 2:37 PM PDT No Moon Set
Length of Visible Light 14h 17m
Length of Day
13h 15m
Tomorrow will be 3m 11s shorter.
Waxing Crescent, 51% of the Moon is Illuminated
Today
Waxing Crescent
Sep 8
Full
Sep 15
Last Quarter
Sep 24
New
Oct 1
First Quarter

Today's Extremes

State Highs State Lows

Community

WunderPhotos

Upload Photos

1,749,642 photos uploaded!

WunderBlogs® & News

By Dr. Jeff Masters
Director of Meteorology, Weather Underground
By Kari Strenfel
Meteorologist, Weather Underground
By Christopher C. Burt
Weather Historian, Weather Underground
September 2, 2014
September 2, 2014
September 2, 2014

Nearby

Snow Depth

Station Depth Elevation
Lost Horse 0 in 5000 ft
Green Lake 0 in 6000 ft
White Pass E.S. 0 in 4500 ft
Pigtail Peak 0 in 5900 ft
Potato Hill 0 in 4500 ft

Earthquake Activity

City Distance Mag. Time & Date
No recent earthquake activity has been reported nearby.
Minimum magnitude displayed is 2.5.

Coastal Water Temperatures

Place Temperature
No Stations Reporting

Nearby Weather Stations